Time;durP1;ratioP1;P1;durP2;ratioP2;P2;SDS_P1;SDS_P2;PMS_P1;PMS_P2;Temp;Humidity;BMP_temperature;BMP_pressure;BME280_temperature;BME280_humidity;BME280_pressure;Samples;Min_cycle;Max_cycle;Signal;HPM_P1;HPM_P2
2023/09/29 00:00:36;;;;;;;12.43;7.93;;;;;13.80;97484.00;;;;5044772;28;20224;-87
2023/09/29 00:03:27;;;;;;;12.90;9.73;;;;;13.70;97481.00;;;;5044087;28;20196;-86
2023/09/29 00:06:16;;;;;;;14.40;10.23;;;;;14.00;97492.00;;;;5050891;28;20200;-86
2023/09/29 00:09:07;;;;;;;12.83;8.63;;;;;13.50;97488.00;;;;5046997;28;20208;-88
2023/09/29 00:11:56;;;;;;;11.17;8.00;;;;;13.40;97489.00;;;;5047871;28;20234;-88
2023/09/29 00:14:45;;;;;;;11.07;9.00;;;;;13.40;97483.00;;;;5046317;28;20204;-85
2023/09/29 00:17:34;;;;;;;12.40;9.70;;;;;13.50;97485.00;;;;5046575;28;20693;-86
2023/09/29 00:20:25;;;;;;;10.27;9.17;;;;;13.50;97478.00;;;;5042646;28;20586;-83
2023/09/29 00:23:15;;;;;;;13.87;9.03;;;;;13.40;97483.00;;;;5050589;28;20243;-87
2023/09/29 00:26:04;;;;;;;8.73;7.83;;;;;13.60;97476.00;;;;5046823;28;20201;-86
2023/09/29 00:28:53;;;;;;;13.37;9.53;;;;;13.70;97478.00;;;;5047071;28;20201;-85
2023/09/29 00:31:42;;;;;;;19.87;8.83;;;;;13.60;97480.00;;;;5047875;28;20228;-87
2023/09/29 00:34:31;;;;;;;12.37;8.80;;;;;13.20;97480.00;;;;5046058;28;20589;-86
2023/09/29 00:37:23;;;;;;;11.30;8.43;;;;;13.30;97468.00;;;;5041127;28;20207;-86
2023/09/29 00:40:14;;;;;;;13.03;9.20;;;;;13.20;97476.00;;;;5046645;28;20212;-86
2023/09/29 00:43:05;;;;;;;11.10;8.73;;;;;13.60;97479.00;;;;5048078;28;20209;-88
2023/09/29 00:45:54;;;;;;;14.57;8.80;;;;;13.50;97472.00;;;;5045402;28;20212;-86
2023/09/29 00:48:43;;;;;;;9.73;8.73;;;;;13.40;97466.00;;;;5048768;28;20220;-86
2023/09/29 00:51:34;;;;;;;10.53;8.83;;;;;13.40;97470.00;;;;5046794;28;20240;-86
2023/09/29 00:54:25;;;;;;;10.20;8.60;;;;;13.40;97465.00;;;;5044552;28;20196;-88
2023/09/29 00:57:14;;;;;;;11.23;8.37;;;;;13.30;97471.00;;;;5046840;28;20205;-85
2023/09/29 01:00:21;;;;;;;10.07;7.90;;;;;13.20;97464.00;;;;5047389;28;20205;-86
2023/09/29 01:03:13;;;;;;;10.00;7.03;;;;;13.00;97464.00;;;;5047364;28;20286;-84
2023/09/29 01:06:02;;;;;;;22.13;8.70;;;;;12.70;97462.00;;;;5047185;28;20267;-87
2023/09/29 01:08:52;;;;;;;11.60;8.57;;;;;13.10;97462.00;;;;5047634;28;20228;-87
2023/09/29 01:11:45;;;;;;;11.03;7.67;;;;;13.40;97460.00;;;;5049802;28;20649;-86
2023/09/29 01:14:35;;;;;;;10.30;8.87;;;;;13.50;97452.00;;;;5044233;28;20204;-85
2023/09/29 01:17:25;;;;;;;9.87;8.00;;;;;13.50;97453.00;;;;5043670;28;20205;-87
2023/09/29 01:20:24;;;;;;;11.43;8.10;;;;;13.50;97453.00;;;;5049448;28;20212;-88
2023/09/29 01:23:14;;;;;;;13.20;7.77;;;;;13.50;97452.00;;;;5049418;28;20200;-88
2023/09/29 01:26:08;;;;;;;11.83;7.90;;;;;13.30;97461.00;;;;5047809;28;20216;-86
2023/09/29 01:28:58;;;;;;;14.40;8.87;;;;;13.10;97464.00;;;;5049290;28;20236;-88
2023/09/29 01:31:49;;;;;;;12.60;8.37;;;;;13.20;97455.00;;;;5047673;28;20228;-87
2023/09/29 01:34:38;;;;;;;11.10;8.77;;;;;13.30;97456.00;;;;5042982;28;20744;-85
2023/09/29 01:37:28;;;;;;;11.40;8.63;;;;;13.10;97456.00;;;;5042908;28;20223;-85
2023/09/29 01:40:17;;;;;;;11.57;8.20;;;;;13.00;97450.00;;;;5043391;28;20196;-86
2023/09/29 01:43:08;;;;;;;11.63;8.40;;;;;12.80;97448.00;;;;5048064;28;20213;-86
2023/09/29 01:45:57;;;;;;;14.67;9.30;;;;;13.20;97457.00;;;;5042722;28;20209;-85
2023/09/29 01:48:46;;;;;;;12.67;9.07;;;;;13.30;97449.00;;;;5045271;28;20227;-85
2023/09/29 01:51:35;;;;;;;10.90;8.03;;;;;13.20;97447.00;;;;5043643;28;20217;-85
2023/09/29 01:54:24;;;;;;;10.27;7.67;;;;;13.00;97451.00;;;;5040498;28;20208;-85
2023/09/29 01:57:13;;;;;;;13.87;8.27;;;;;13.10;97451.00;;;;5045790;28;20211;-85
2023/09/29 02:00:09;;;;;;;9.27;7.97;;;;;13.30;97444.00;;;;5045322;28;20213;-87
2023/09/29 02:03:00;;;;;;;12.07;9.20;;;;;13.30;97441.00;;;;5048042;28;20208;-85
2023/09/29 02:05:49;;;;;;;12.63;9.07;;;;;12.90;97435.00;;;;5047974;28;20215;-85
2023/09/29 02:08:38;;;;;;;12.03;8.03;;;;;12.80;97443.00;;;;5045435;28;20658;-86
2023/09/29 02:11:28;;;;;;;11.70;8.40;;;;;12.70;97447.00;;;;5045080;28;20236;-85
2023/09/29 02:14:17;;;;;;;9.87;8.23;;;;;12.50;97445.00;;;;5044012;28;20697;-85
2023/09/29 02:17:08;;;;;;;18.03;9.40;;;;;12.90;97445.00;;;;5050765;28;20204;-88
2023/09/29 02:19:57;;;;;;;15.07;8.73;;;;;12.90;97448.00;;;;5047311;28;20215;-85
2023/09/29 02:22:47;;;;;;;10.83;7.67;;;;;12.60;97446.00;;;;5049276;28;20307;-85
2023/09/29 02:25:36;;;;;;;11.03;8.90;;;;;12.60;97442.00;;;;5045428;28;20200;-86
2023/09/29 02:28:30;;;;;;;14.57;7.97;;;;;12.20;97446.00;;;;5043897;28;20231;-86
2023/09/29 02:31:19;;;;;;;12.83;8.73;;;;;12.40;97452.00;;;;5043862;28;20228;-86
2023/09/29 02:34:10;;;;;;;10.57;8.47;;;;;12.70;97457.00;;;;5047178;28;20355;-86
2023/09/29 02:36:59;;;;;;;16.20;9.13;;;;;12.90;97451.00;;;;5049391;28;20219;-85
2023/09/29 02:39:48;;;;;;;15.07;9.27;;;;;12.80;97448.00;;;;5050386;28;20215;-86
2023/09/29 02:42:37;;;;;;;14.83;8.23;;;;;12.50;97444.00;;;;5045181;28;20224;-85
2023/09/29 02:45:27;;;;;;;19.47;9.27;;;;;12.60;97445.00;;;;5049056;28;20684;-85
2023/09/29 02:48:16;;;;;;;10.40;8.23;;;;;12.60;97446.00;;;;5039717;28;20224;-87
2023/09/29 02:51:15;;;;;;;13.17;8.30;;;;;12.60;97446.00;;;;5050083;28;20271;-85
2023/09/29 02:54:05;;;;;;;10.47;7.10;;;;;12.60;97441.00;;;;5048733;28;20205;-85
2023/09/29 02:56:56;;;;;;;8.83;7.63;;;;;12.60;97436.00;;;;5047676;28;20804;-86
2023/09/29 02:59:46;;;;;;;10.30;8.60;;;;;12.20;97431.00;;;;5048597;28;20275;-86
2023/09/29 03:02:35;;;;;;;12.50;8.47;;;;;12.30;97428.00;;;;5044023;28;20881;-85
2023/09/29 03:05:25;;;;;;;11.43;7.77;;;;;12.10;97436.00;;;;5045130;28;20765;-85
2023/09/29 03:08:16;;;;;;;8.63;7.40;;;;;12.10;97433.00;;;;5047834;28;20755;-86
2023/09/29 03:11:09;;;;;;;9.83;8.13;;;;;12.20;97437.00;;;;5049219;28;20231;-85
2023/09/29 03:13:58;;;;;;;17.63;9.80;;;;;12.30;97434.00;;;;5047740;28;20205;-87
2023/09/29 03:16:47;;;;;;;10.50;8.60;;;;;12.30;97436.00;;;;5046791;28;20224;-87
2023/09/29 03:19:36;;;;;;;10.33;8.57;;;;;12.20;97436.00;;;;5049276;28;20212;-85
2023/09/29 03:22:26;;;;;;;9.47;6.97;;;;;12.40;97432.00;;;;5043767;28;20217;-86
2023/09/29 03:25:19;;;;;;;8.93;8.00;;;;;12.40;97436.00;;;;5040717;28;20201;-86
2023/09/29 03:28:10;;;;;;;10.03;8.30;;;;;12.60;97434.00;;;;5059319;28;20243;-84
2023/09/29 03:31:00;;;;;;;11.07;8.10;;;;;12.50;97427.00;;;;5059805;28;20243;-85
2023/09/29 03:33:49;;;;;;;10.10;8.03;;;;;12.20;97433.00;;;;5051858;28;20224;-87
2023/09/29 03:36:38;;;;;;;10.43;8.90;;;;;11.60;97435.00;;;;5046287;28;20228;-86
2023/09/29 03:39:27;;;;;;;17.00;9.57;;;;;11.70;97431.00;;;;5045464;28;20210;-86
2023/09/29 03:42:19;;;;;;;8.70;7.80;;;;;11.80;97428.00;;;;5066579;28;20216;-88
2023/09/29 03:45:09;;;;;;;15.50;9.37;;;;;11.90;97426.00;;;;5066872;28;20213;-87
2023/09/29 03:47:59;;;;;;;8.70;7.77;;;;;11.90;97419.00;;;;5068719;28;20196;-85
2023/09/29 03:50:49;;;;;;;10.37;8.10;;;;;11.60;97418.00;;;;5066471;28;20232;-87
2023/09/29 03:53:38;;;;;;;8.63;7.70;;;;;11.80;97421.00;;;;5067055;28;20223;-84
2023/09/29 03:56:27;;;;;;;11.73;8.33;;;;;11.70;97422.00;;;;5066148;28;20193;-88
2023/09/29 03:59:18;;;;;;;15.13;8.53;;;;;12.00;97426.00;;;;5064781;28;20211;-87
2023/09/29 04:02:08;;;;;;;11.90;8.97;;;;;11.70;97422.00;;;;5066964;28;20255;-88
2023/09/29 04:04:59;;;;;;;11.70;8.07;;;;;11.10;97419.00;;;;5060827;28;20204;-87
2023/09/29 04:07:48;;;;;;;16.83;8.13;;;;;11.20;97431.00;;;;5059114;28;20544;-88
2023/09/29 04:10:37;;;;;;;10.43;8.47;;;;;11.50;97424.00;;;;5059379;28;20224;-89
2023/09/29 04:13:26;;;;;;;10.27;8.33;;;;;11.70;97420.00;;;;5059896;28;20630;-88
2023/09/29 04:16:17;;;;;;;18.13;9.13;;;;;11.50;97427.00;;;;5056067;28;20196;-88
2023/09/29 04:19:07;;;;;;;10.67;9.57;;;;;11.60;97425.00;;;;5062111;28;20204;-88
2023/09/29 04:21:56;;;;;;;15.77;10.50;;;;;11.40;97418.00;;;;5054119;28;20234;-89
2023/09/29 04:24:45;;;;;;;12.60;9.33;;;;;11.90;97428.00;;;;5047161;28;20550;-88
2023/09/29 04:27:35;;;;;;;12.80;9.27;;;;;11.70;97420.00;;;;5044333;28;20575;-88
2023/09/29 04:30:24;;;;;;;13.37;9.20;;;;;12.00;97425.00;;;;5044265;28;20234;-88
2023/09/29 04:33:16;;;;;;;14.90;8.60;;;;;11.50;97417.00;;;;5047602;28;20743;-88
2023/09/29 04:36:05;;;;;;;8.83;7.10;;;;;10.80;97415.00;;;;5049037;28;20199;-87
2023/09/29 04:38:54;;;;;;;9.53;8.17;;;;;10.70;97418.00;;;;5050835;28;20204;-89
2023/09/29 04:41:44;;;;;;;9.50;8.43;;;;;11.00;97420.00;;;;5052807;28;20286;-89
2023/09/29 04:44:33;;;;;;;11.70;9.13;;;;;11.20;97424.00;;;;5046184;28;20201;-89
2023/09/29 04:47:22;;;;;;;10.50;8.87;;;;;11.70;97424.00;;;;5045384;28;20681;-87
2023/09/29 04:50:14;;;;;;;10.10;8.73;;;;;11.70;97424.00;;;;5049274;28;20227;-86
2023/09/29 04:53:03;;;;;;;15.70;9.43;;;;;11.50;97428.00;;;;5051474;28;20253;-88
2023/09/29 04:55:52;;;;;;;12.60;9.57;;;;;11.50;97425.00;;;;5053481;28;20204;-87
2023/09/29 04:58:41;;;;;;;10.40;8.57;;;;;10.90;97428.00;;;;5048768;28;20661;-85
2023/09/29 05:01:30;;;;;;;13.53;8.53;;;;;11.30;97433.00;;;;5046947;28;20228;-88
2023/09/29 05:04:19;;;;;;;13.37;9.07;;;;;11.90;97430.00;;;;5049943;28;20199;-86
2023/09/29 05:07:11;;;;;;;15.60;9.80;;;;;11.70;97442.00;;;;5046826;28;20674;-88
2023/09/29 05:10:00;;;;;;;12.97;8.63;;;;;11.20;97448.00;;;;5047315;28;20235;-86
2023/09/29 05:12:49;;;;;;;12.40;8.83;;;;;10.90;97434.00;;;;5045770;28;20274;-87
2023/09/29 05:15:39;;;;;;;12.57;7.90;;;;;11.30;97446.00;;;;5050273;28;20205;-88
2023/09/29 05:18:28;;;;;;;20.83;10.00;;;;;11.30;97446.00;;;;5045662;28;20207;-87
2023/09/29 05:21:17;;;;;;;13.20;9.40;;;;;11.80;97456.00;;;;5046109;28;20642;-87
2023/09/29 05:24:09;;;;;;;11.27;9.07;;;;;12.00;97448.00;;;;5043985;28;20205;-88
2023/09/29 05:26:58;;;;;;;13.80;9.07;;;;;12.00;97451.00;;;;5047657;28;20205;-86
2023/09/29 05:29:47;;;;;;;11.83;8.57;;;;;11.40;97440.00;;;;5050112;28;20228;-86
2023/09/29 05:32:37;;;;;;;13.40;9.50;;;;;11.40;97448.00;;;;5050297;28;20212;-87
2023/09/29 05:35:26;;;;;;;8.60;7.73;;;;;11.70;97447.00;;;;5051011;28;20687;-88
2023/09/29 05:38:15;;;;;;;14.53;7.80;;;;;11.80;97449.00;;;;5052890;28;20587;-87
2023/09/29 05:41:05;;;;;;;10.20;8.23;;;;;11.70;97445.00;;;;5053139;28;20224;-88
2023/09/29 05:43:55;;;;;;;13.47;8.70;;;;;10.90;97441.00;;;;5046538;28;20227;-88
2023/09/29 05:46:44;;;;;;;12.63;8.70;;;;;11.00;97443.00;;;;5053717;28;20209;-88
2023/09/29 05:49:34;;;;;;;12.03;7.57;;;;;10.70;97444.00;;;;5051242;28;20220;-87
2023/09/29 05:52:23;;;;;;;10.00;7.80;;;;;11.50;97451.00;;;;5048127;28;20530;-85
2023/09/29 05:55:13;;;;;;;12.50;9.53;;;;;11.50;97445.00;;;;5054827;28;20197;-88
2023/09/29 05:58:03;;;;;;;9.87;7.97;;;;;11.70;97453.00;;;;5051246;28;20215;-88
2023/09/29 06:00:52;;;;;;;10.50;8.57;;;;;11.80;97455.00;;;;5049034;28;20216;-87
2023/09/29 06:03:41;;;;;;;10.47;7.23;;;;;11.50;97442.00;;;;5053090;28;20216;-87
2023/09/29 06:06:31;;;;;;;10.17;7.80;;;;;11.50;97455.00;;;;5048200;28;20232;-87
2023/09/29 06:09:20;;;;;;;13.83;8.07;;;;;11.20;97460.00;;;;5051922;28;20224;-86
2023/09/29 06:12:09;;;;;;;13.47;8.60;;;;;11.40;97462.00;;;;5053199;28;20240;-87
2023/09/29 06:15:00;;;;;;;10.30;9.23;;;;;11.60;97465.00;;;;5052805;28;20253;-86
2023/09/29 06:17:49;;;;;;;12.40;7.70;;;;;11.60;97464.00;;;;5051584;28;20600;-85
2023/09/29 06:20:39;;;;;;;14.20;8.47;;;;;12.00;97461.00;;;;5047008;28;20216;-87
2023/09/29 06:23:28;;;;;;;9.63;7.73;;;;;11.70;97466.00;;;;5045337;28;20609;-87
2023/09/29 06:26:17;;;;;;;14.50;8.43;;;;;12.20;97475.00;;;;5053527;28;20212;-85
2023/09/29 06:29:06;;;;;;;10.07;9.07;;;;;12.40;97469.00;;;;5053519;28;20212;-87
2023/09/29 06:31:57;;;;;;;15.23;9.33;;;;;12.90;97479.00;;;;5052079;28;20716;-87
2023/09/29 06:34:46;;;;;;;10.20;7.93;;;;;12.60;97475.00;;;;5052701;28;20197;-87
2023/09/29 06:37:35;;;;;;;11.20;9.07;;;;;12.70;97483.00;;;;5049363;28;20205;-87
2023/09/29 06:40:24;;;;;;;20.50;10.27;;;;;12.90;97480.00;;;;5046187;28;20196;-87
2023/09/29 06:43:15;;;;;;;12.37;9.30;;;;;13.20;97493.00;;;;5051690;28;20212;-87
2023/09/29 06:46:04;;;;;;;14.50;9.67;;;;;13.00;97489.00;;;;5050150;28;20205;-86
2023/09/29 06:48:55;;;;;;;13.60;10.37;;;;;13.50;97489.00;;;;5050054;28;20696;-85
2023/09/29 06:51:44;;;;;;;19.37;13.30;;;;;13.80;97489.00;;;;5052032;28;20618;-87
2023/09/29 06:54:33;;;;;;;20.63;12.60;;;;;14.20;97495.00;;;;5047753;28;20203;-86
2023/09/29 06:57:22;;;;;;;15.43;12.13;;;;;14.20;97495.00;;;;5045311;28;20197;-87
2023/09/29 07:00:13;;;;;;;20.67;13.17;;;;;14.40;97497.00;;;;5051069;28;20196;-87
2023/09/29 07:03:02;;;;;;;15.57;12.70;;;;;14.50;97499.00;;;;5041438;28;20580;-87
2023/09/29 07:05:52;;;;;;;15.80;11.60;;;;;14.70;97500.00;;;;5048142;28;20208;-85
2023/09/29 07:08:41;;;;;;;18.60;12.97;;;;;15.00;97492.00;;;;5049672;28;20197;-85
2023/09/29 07:11:30;;;;;;;14.47;9.50;;;;;14.70;97496.00;;;;5046847;28;20239;-85
2023/09/29 07:14:20;;;;;;;20.33;14.63;;;;;15.90;97509.00;;;;5042894;28;20208;-86
2023/09/29 07:17:09;;;;;;;22.27;13.10;;;;;16.00;97502.00;;;;5050268;28;20205;-86
2023/09/29 07:19:58;;;;;;;15.33;12.07;;;;;16.00;97496.00;;;;5049660;28;20572;-85
2023/09/29 07:22:50;;;;;;;15.83;13.53;;;;;16.20;97504.00;;;;5049789;28;20192;-87
2023/09/29 07:25:39;;;;;;;18.67;12.63;;;;;16.80;97510.00;;;;5047971;28;20643;-87
2023/09/29 07:28:28;;;;;;;22.23;14.97;;;;;16.60;97497.00;;;;5046621;28;20201;-87
2023/09/29 07:31:17;;;;;;;22.00;13.97;;;;;17.10;97497.00;;;;5044116;28;20350;-86
2023/09/29 07:34:07;;;;;;;21.87;13.37;;;;;17.60;97497.00;;;;5050600;28;20211;-88
2023/09/29 07:36:56;;;;;;;22.50;13.40;;;;;17.40;97495.00;;;;5053368;28;20495;-87
2023/09/29 07:39:47;;;;;;;17.40;13.53;;;;;17.80;97502.00;;;;5050237;28;20211;-87
2023/09/29 07:42:36;;;;;;;17.17;10.97;;;;;18.20;97501.00;;;;5047772;28;20508;-87
2023/09/29 07:45:25;;;;;;;18.47;11.53;;;;;18.20;97499.00;;;;5052217;28;20576;-87
2023/09/29 07:48:14;;;;;;;23.53;14.20;;;;;18.40;97491.00;;;;5051284;28;20204;-86
2023/09/29 07:51:03;;;;;;;20.97;12.30;;;;;18.30;97495.00;;;;5051099;28;20757;-87
2023/09/29 07:53:53;;;;;;;17.17;12.73;;;;;18.60;97502.00;;;;5049318;28;20676;-86
2023/09/29 07:56:47;;;;;;;22.17;13.00;;;;;18.70;97516.00;;;;5054073;28;20661;-86
2023/09/29 07:59:36;;;;;;;24.37;12.80;;;;;19.10;97505.00;;;;5050133;28;20275;-85
2023/09/29 08:02:27;;;;;;;16.23;11.03;;;;;19.30;97503.00;;;;5052902;28;20248;-87
2023/09/29 08:05:17;;;;;;;20.50;11.50;;;;;19.50;97511.00;;;;5050012;28;20735;-88
2023/09/29 08:08:07;;;;;;;15.77;10.93;;;;;19.70;97505.00;;;;5050282;28;20666;-87
2023/09/29 08:10:56;;;;;;;20.63;10.83;;;;;19.80;97501.00;;;;5047772;28;20709;-86
2023/09/29 08:13:51;;;;;;;20.50;11.60;;;;;20.10;97512.00;;;;5051552;28;20207;-86
2023/09/29 08:16:41;;;;;;;16.40;12.13;;;;;20.20;97515.00;;;;5048378;28;20618;-87
2023/09/29 08:19:30;;;;;;;17.67;10.27;;;;;20.30;97511.00;;;;5047453;28;20208;-86
2023/09/29 08:22:19;;;;;;;18.07;12.13;;;;;20.50;97516.00;;;;5052015;28;20228;-87
2023/09/29 08:25:14;;;;;;;23.87;10.67;;;;;20.70;97505.00;;;;5044455;28;20196;-88
2023/09/29 08:28:03;;;;;;;14.63;10.70;;;;;20.90;97513.00;;;;5051558;28;20670;-88
2023/09/29 08:30:54;;;;;;;16.20;11.20;;;;;21.10;97499.00;;;;5049813;28;20243;-88
2023/09/29 08:33:43;;;;;;;17.00;11.40;;;;;21.10;97496.00;;;;5051187;28;20208;-88
2023/09/29 08:36:38;;;;;;;17.60;10.33;;;;;21.20;97509.00;;;;5046897;28;20219;-87
2023/09/29 08:39:28;;;;;;;18.73;9.93;;;;;21.50;97512.00;;;;5042167;28;20198;-89
2023/09/29 08:42:23;;;;;;;11.57;8.50;;;;;21.80;97499.00;;;;5046676;28;20225;-86
2023/09/29 08:45:12;;;;;;;18.63;10.60;;;;;22.00;97503.00;;;;5052274;28;20200;-89
2023/09/29 08:48:03;;;;;;;13.27;10.40;;;;;22.10;97503.00;;;;5051438;28;20213;-88
2023/09/29 08:50:55;;;;;;;17.67;10.03;;;;;22.20;97511.00;;;;5049581;28;20254;-87
2023/09/29 08:53:45;;;;;;;13.47;9.97;;;;;22.30;97502.00;;;;5045515;28;20204;-86
2023/09/29 08:56:35;;;;;;;11.73;9.27;;;;;22.50;97504.00;;;;5051568;28;20200;-90
2023/09/29 08:59:24;;;;;;;11.57;9.13;;;;;22.50;97500.00;;;;5052128;28;20205;-88
2023/09/29 09:02:15;;;;;;;12.30;10.60;;;;;22.80;97499.00;;;;5043381;28;20212;-87
2023/09/29 09:05:06;;;;;;;12.70;8.97;;;;;22.90;97502.00;;;;5049304;28;20205;-88
2023/09/29 09:07:55;;;;;;;14.10;9.33;;;;;23.20;97498.00;;;;5050448;28;20200;-88
2023/09/29 09:10:45;;;;;;;16.47;9.57;;;;;23.40;97503.00;;;;5042966;28;20237;-88
2023/09/29 09:13:34;;;;;;;10.77;8.77;;;;;23.70;97495.00;;;;5047092;28;20197;-87
2023/09/29 09:16:23;;;;;;;14.30;9.63;;;;;23.90;97490.00;;;;5053018;28;20204;-88
2023/09/29 09:19:13;;;;;;;14.30;8.90;;;;;24.10;97489.00;;;;5052101;28;20204;-88
2023/09/29 09:22:14;;;;;;;14.33;8.53;;;;;24.40;97482.00;;;;5052798;28;20265;-89
2023/09/29 09:25:08;;;;;;;16.20;9.17;;;;;24.60;97494.00;;;;5043473;28;20715;-88
2023/09/29 09:27:57;;;;;;;10.40;8.27;;;;;24.70;97490.00;;;;5050244;28;20209;-88
2023/09/29 09:30:48;;;;;;;10.40;7.50;;;;;24.90;97490.00;;;;5053613;28;20693;-87
2023/09/29 09:33:37;;;;;;;16.53;8.33;;;;;25.10;97486.00;;;;5052215;28;20217;-90
2023/09/29 09:36:26;;;;;;;10.93;7.70;;;;;25.30;97489.00;;;;5045988;28;20201;-89
2023/09/29 09:39:17;;;;;;;10.30;7.23;;;;;25.20;97483.00;;;;5058556;28;20209;-88
2023/09/29 09:42:06;;;;;;;7.97;6.93;;;;;25.40;97479.00;;;;5047976;28;20278;-89
2023/09/29 09:44:57;;;;;;;13.17;7.53;;;;;25.80;97476.00;;;;5053397;28;20594;-89
2023/09/29 09:47:48;;;;;;;10.70;7.67;;;;;26.10;97479.00;;;;5052297;28;20223;-89
2023/09/29 09:50:38;;;;;;;9.23;6.93;;;;;26.40;97478.00;;;;5047926;28;20220;-86
2023/09/29 09:53:28;;;;;;;9.77;7.00;;;;;26.50;97478.00;;;;5043635;28;20216;-89
2023/09/29 09:56:24;;;;;;;10.20;7.00;;;;;26.90;97472.00;;;;5049888;28;20209;-89
2023/09/29 09:59:14;;;;;;;6.83;5.63;;;;;27.10;97474.00;;;;5051505;28;20200;-89
2023/09/29 10:02:06;;;;;;;12.80;5.37;;;;;27.20;97482.00;;;;5050716;28;20224;-87
2023/09/29 10:04:56;;;;;;;9.50;6.10;;;;;27.20;97482.00;;;;5050675;28;20208;-88
2023/09/29 10:07:48;;;;;;;12.70;5.83;;;;;27.50;97473.00;;;;5051324;28;20287;-86
2023/09/29 10:10:40;;;;;;;8.80;6.27;;;;;26.80;97468.00;;;;5051467;28;20247;-87
2023/09/29 10:13:36;;;;;;;7.87;5.37;;;;;27.40;97471.00;;;;5048288;28;20201;-89
2023/09/29 10:16:25;;;;;;;9.27;5.17;;;;;28.00;97479.00;;;;5046241;28;20196;-87
2023/09/29 10:19:17;;;;;;;6.27;4.87;;;;;27.90;97475.00;;;;5049054;28;20220;-88
2023/09/29 10:22:07;;;;;;;8.10;4.87;;;;;27.30;97463.00;;;;5053906;28;20248;-87
2023/09/29 10:24:59;;;;;;;7.67;5.60;;;;;28.30;97456.00;;;;5046033;28;20610;-86
2023/09/29 10:27:50;;;;;;;8.77;5.33;;;;;28.10;97458.00;;;;5054900;28;20246;-87
2023/09/29 10:30:41;;;;;;;9.30;5.37;;;;;28.90;97459.00;;;;5052813;28;20220;-88
2023/09/29 10:33:30;;;;;;;6.83;4.87;;;;;29.10;97450.00;;;;5114591;22;20709;-89
2023/09/29 10:36:22;;;;;;;8.10;4.77;;;;;29.40;97455.00;;;;5129888;27;20218;-89
2023/09/29 10:39:11;;;;;;;7.83;5.70;;;;;29.50;97455.00;;;;5132999;27;20701;-89
2023/09/29 10:42:04;;;;;;;8.00;4.77;;;;;30.00;97451.00;;;;5124274;27;20236;-89
2023/09/29 10:44:55;;;;;;;6.30;4.43;;;;;30.00;97448.00;;;;5112409;28;20210;-90
2023/09/29 10:47:46;;;;;;;6.87;4.07;;;;;30.10;97445.00;;;;5113626;28;20212;-90
2023/09/29 10:50:42;;;;;;;8.67;5.20;;;;;29.60;97438.00;;;;5104882;28;20198;-90
2023/09/29 10:53:37;;;;;;;9.43;5.13;;;;;30.20;97439.00;;;;5114335;28;20230;-89
2023/09/29 10:56:27;;;;;;;10.33;5.40;;;;;31.00;97434.00;;;;5100318;28;20571;-90
2023/09/29 10:59:17;;;;;;;7.67;4.40;;;;;29.60;97432.00;;;;5101687;28;20199;-90
2023/09/29 11:02:06;;;;;;;7.50;4.73;;;;;29.10;97424.00;;;;5114038;28;21101;-89
2023/09/29 11:04:57;;;;;;;6.10;4.50;;;;;30.70;97421.00;;;;5107721;28;20212;-89
2023/09/29 11:07:50;;;;;;;7.90;5.43;;;;;30.00;97421.00;;;;5114616;28;20682;-89
2023/09/29 11:10:39;;;;;;;9.63;4.10;;;;;31.40;97418.00;;;;5108303;28;20231;-89
2023/09/29 11:13:29;;;;;;;6.60;4.10;;;;;32.00;97415.00;;;;5115657;28;20795;-89
2023/09/29 11:16:18;;;;;;;7.75;4.30;;;;;32.00;97414.00;;;;5107053;28;20203;-89
2023/09/29 11:19:10;;;;;;;8.45;4.95;;;;;32.50;97419.00;;;;5105556;28;20204;-89
2023/09/29 11:22:03;;;;;;;5.95;4.32;;;;;32.70;97402.00;;;;5106848;28;20227;-89
2023/09/29 11:24:54;;;;;;;4.22;3.80;;;;;30.30;97406.00;;;;5109875;28;20200;-88
2023/09/29 11:27:50;;;;;;;8.23;4.60;;;;;32.20;97403.00;;;;5100180;28;20197;-88
2023/09/29 11:30:40;;;;;;;5.13;4.00;;;;;32.80;97398.00;;;;5108915;28;20208;-89
2023/09/29 11:33:29;;;;;;;6.22;4.20;;;;;33.60;97393.00;;;;5108248;28;20222;-89
2023/09/29 11:36:21;;;;;;;5.15;3.95;;;;;33.80;97400.00;;;;5104242;28;20194;-88
2023/09/29 11:39:16;;;;;;;8.90;5.00;;;;;33.30;97397.00;;;;5110532;28;20552;-89
2023/09/29 11:42:05;;;;;;;6.95;3.80;;;;;34.10;97386.00;;;;5109875;28;20263;-89
2023/09/29 11:44:55;;;;;;;4.78;3.75;;;;;32.30;97380.00;;;;5109322;28;20618;-89
2023/09/29 11:47:44;;;;;;;4.35;3.58;;;;;33.20;97383.00;;;;5112099;28;20617;-89
2023/09/29 11:50:35;;;;;;;5.45;4.28;;;;;34.50;97371.00;;;;5106626;28;20198;-89
2023/09/29 11:53:24;;;;;;;4.68;3.80;;;;;34.90;97372.00;;;;5104139;28;20245;-90
2023/09/29 11:56:15;;;;;;;6.45;3.38;;;;;35.20;97375.00;;;;5109622;28;20655;-89
2023/09/29 11:59:04;;;;;;;4.20;3.53;;;;;35.10;97367.00;;;;5110679;28;20199;-89
2023/09/29 12:01:54;;;;;;;7.63;4.07;;;;;35.10;97373.00;;;;5105137;28;20590;-90
2023/09/29 12:04:43;;;;;;;6.85;3.97;;;;;35.20;97363.00;;;;5108577;28;20205;-89
2023/09/29 12:07:32;;;;;;;7.15;3.92;;;;;35.90;97366.00;;;;5108488;28;20208;-89
2023/09/29 12:10:21;;;;;;;7.32;3.97;;;;;36.80;97366.00;;;;5104696;27;20202;-89
2023/09/29 12:13:15;;;;;;;5.93;3.92;;;32.60;59.00;34.20;97356.00;;;;5110115;28;20241;-89
2023/09/29 12:16:07;;;;;;;6.50;3.55;;;32.50;57.80;33.00;97354.00;;;;5109264;28;20202;-88
2023/09/29 12:18:57;;;;;;;3.88;3.30;;;;;34.70;97356.00;;;;5109493;28;20195;-89
2023/09/29 12:21:47;;;;;;;4.10;3.75;;;;;35.20;97354.00;;;;5109843;28;20234;-89
2023/09/29 12:24:37;;;;;;;6.25;3.58;;;;;36.20;97364.00;;;;5111105;28;20651;-89
2023/09/29 12:27:26;;;;;;;5.03;3.40;;;;;36.10;97352.00;;;;5109416;28;20198;-89
2023/09/29 12:30:18;;;;;;;4.10;3.67;;;32.60;57.00;37.40;97347.00;;;;5103649;28;20247;-89
2023/09/29 12:33:07;;;;;;;4.25;3.78;;;32.60;57.50;37.90;97350.00;;;;5108809;28;20227;-89
2023/09/29 12:35:56;;;;;;;4.95;3.35;;;33.20;57.50;37.70;97349.00;;;;5106243;28;20577;-89
2023/09/29 12:38:45;;;;;;;4.35;3.35;;;33.60;55.50;37.80;97341.00;;;;5110594;28;20206;-89
2023/09/29 12:41:37;;;;;;;4.28;3.83;;;33.80;55.10;38.10;97339.00;;;;5107106;28;20234;-89
2023/09/29 12:44:26;;;;;;;4.30;3.60;;;33.10;53.90;38.40;97342.00;;;;5111460;28;20219;-90
2023/09/29 12:47:17;;;;;;;3.72;3.42;;;34.30;54.30;38.60;97331.00;;;;5109817;28;20202;-89
2023/09/29 12:50:08;;;;;;;7.05;3.47;;;34.70;54.00;38.90;97333.00;;;;5108549;28;20206;-89
2023/09/29 12:52:57;;;;;;;3.70;3.40;;;34.90;53.20;36.70;97328.00;;;;5107992;28;20217;-88
2023/09/29 12:55:45;;;;;;;4.53;4.13;;;34.90;52.10;32.50;97330.00;;;;5111383;27;20213;-88
2023/09/29 12:58:34;;;;;;;6.40;3.42;;;33.10;51.10;34.30;97329.00;;;;5108803;28;20202;-89
2023/09/29 13:01:23;;;;;;;8.35;3.85;;;32.10;51.60;35.40;97319.00;;;;5106044;28;20222;-89
2023/09/29 13:04:14;;;;;;;4.15;3.67;;;;;36.20;97317.00;;;;5110730;28;20254;-88
2023/09/29 13:07:04;;;;;;;3.90;3.60;;;;;36.70;97326.00;;;;5110050;28;20202;-88
2023/09/29 13:09:53;;;;;;;3.85;3.45;;;32.80;53.60;36.10;97317.00;;;;5104241;28;20206;-89
2023/09/29 13:12:42;;;;;;;4.50;4.10;;;33.00;52.30;37.20;97315.00;;;;5107255;28;20218;-89
2023/09/29 13:15:32;;;;;;;9.32;3.88;;;33.10;52.90;38.10;97313.00;;;;5103422;28;20282;-88
2023/09/29 13:18:22;;;;;;;4.13;3.72;;;33.50;53.70;38.30;97310.00;;;;5108331;28;20403;-89
2023/09/29 13:21:13;;;;;;;7.85;4.07;;;33.90;53.90;38.20;97314.00;;;;5110063;28;20199;-89
2023/09/29 13:24:10;;;;;;;3.75;3.45;;;34.10;53.60;38.90;97310.00;;;;5106560;28;20275;-88
2023/09/29 13:27:02;;;;;;;4.60;3.45;;;34.40;53.20;39.10;97306.00;;;;5101095;28;20617;-89
2023/09/29 13:29:51;;;;;;;5.45;4.10;;;34.80;52.90;39.40;97308.00;;;;5105639;28;20244;-88
2023/09/29 13:32:41;;;;;;;4.18;3.78;;;35.20;52.20;39.40;97309.00;;;;5102329;28;20237;-89
2023/09/29 13:35:30;;;;;;;4.90;3.65;;;35.30;51.30;39.40;97310.00;;;;5111147;28;20571;-88
2023/09/29 13:38:21;;;;;;;8.38;3.33;;;35.50;50.70;39.40;97315.00;;;;5108284;28;20199;-88
2023/09/29 13:41:10;;;;;;;7.50;4.65;;;35.60;50.90;36.70;97302.00;;;;5107068;28;20207;-87
2023/09/29 13:44:00;;;;;;;6.95;3.92;;;35.00;49.40;37.70;97299.00;;;;5106199;28;20229;-88
2023/09/29 13:46:49;;;;;;;5.20;3.95;;;34.70;50.40;38.40;97305.00;;;;5103877;28;20264;-88
2023/09/29 13:49:48;;;;;;;8.90;3.83;;;34.70;51.10;38.90;97299.00;;;;5101189;28;20202;-89
2023/09/29 13:52:37;;;;;;;4.13;3.72;;;35.10;50.90;36.00;97305.00;;;;5100341;28;20214;-88